createdAt,value
2023-05-03T00:00:42.648Z,5.30
2023-05-03T00:03:11.555Z,5.05
2023-05-03T00:05:40.743Z,4.70
2023-05-03T00:08:09.859Z,4.32
2023-05-03T00:10:38.283Z,5.03
2023-05-03T00:13:07.863Z,4.65
2023-05-03T00:15:36.702Z,4.63
2023-05-03T00:18:07.374Z,5.10
2023-05-03T00:20:36.283Z,4.32
2023-05-03T00:23:05.628Z,4.10
2023-05-03T00:25:34.227Z,3.70
2023-05-03T00:28:03.103Z,4.15
2023-05-03T00:30:32.255Z,4.38
2023-05-03T00:33:01.215Z,3.28
2023-05-03T00:35:31.667Z,3.55
2023-05-03T00:40:28.734Z,3.92
2023-05-03T00:42:57.664Z,3.50
2023-05-03T00:45:26.763Z,3.53
2023-05-03T00:47:55.783Z,3.30
2023-05-03T00:50:25.133Z,3.78
2023-05-03T00:52:54.977Z,3.75
2023-05-03T00:55:24.313Z,3.95
2023-05-03T00:57:53.228Z,3.97
2023-05-03T01:00:22.412Z,3.83
2023-05-03T01:02:52.038Z,3.50
2023-05-03T01:05:21.610Z,4.35
2023-05-03T01:08:00.863Z,4.35
2023-05-03T01:10:35.300Z,3.30
2023-05-03T01:13:10.519Z,3.55
2023-05-03T01:15:48.272Z,3.60
2023-05-03T01:18:20.480Z,3.22
2023-05-03T01:20:50.740Z,4.22
2023-05-03T01:23:32.052Z,4.75
2023-05-03T01:26:01.985Z,4.70
2023-05-03T01:28:30.850Z,4.80
2023-05-03T01:31:00.676Z,4.03
2023-05-03T01:33:35.302Z,3.85
2023-05-03T01:36:09.691Z,4.65
2023-05-03T01:38:39.166Z,4.70
2023-05-03T01:41:12.488Z,4.20
2023-05-03T01:43:41.912Z,3.80
2023-05-03T01:46:11.493Z,4.43
2023-05-03T01:48:40.590Z,3.83
2023-05-03T01:51:09.778Z,4.13
2023-05-03T01:53:39.096Z,3.33
2023-05-03T01:56:09.751Z,3.25
2023-05-03T02:01:08.246Z,3.00
2023-05-03T02:03:37.278Z,3.78
2023-05-03T02:06:06.544Z,3.30
2023-05-03T02:08:35.637Z,3.30
2023-05-03T02:11:04.536Z,3.30
2023-05-03T02:13:34.485Z,3.65
2023-05-03T02:16:03.483Z,3.60
2023-05-03T02:18:33.726Z,3.80
2023-05-03T02:21:02.674Z,3.90
2023-05-03T02:23:31.543Z,4.45
2023-05-03T02:26:00.404Z,4.80
2023-05-03T02:28:28.958Z,4.35
2023-05-03T02:30:59.742Z,3.88
2023-05-03T02:33:29.055Z,4.47
2023-05-03T02:35:58.541Z,4.50
2023-05-03T02:38:27.664Z,3.95
2023-05-03T02:40:56.171Z,4.55
2023-05-03T02:43:25.309Z,4.00
2023-05-03T02:45:54.668Z,4.00
2023-05-03T02:48:25.896Z,4.05
2023-05-03T02:50:55.236Z,4.13
2023-05-03T02:53:24.293Z,4.22
2023-05-03T02:55:54.920Z,4.03
2023-05-03T02:58:23.850Z,3.65
2023-05-03T03:00:52.813Z,4.10
2023-05-03T03:03:21.809Z,4.07
2023-05-03T03:05:53.254Z,4.15
2023-05-03T03:08:22.390Z,3.83
2023-05-03T03:10:51.343Z,4.07
2023-05-03T03:13:20.419Z,4.13
2023-05-03T03:15:49.713Z,5.07
2023-05-03T03:18:19.979Z,4.28
2023-05-03T03:20:49.171Z,3.38
2023-05-03T03:23:19.513Z,4.00
2023-05-03T03:25:48.636Z,4.00
2023-05-03T03:28:18.199Z,3.40
2023-05-03T03:30:47.751Z,3.80
2023-05-03T03:33:26.714Z,3.70
2023-05-03T03:36:01.471Z,3.78
2023-05-03T03:38:37.042Z,3.67
2023-05-03T03:41:10.127Z,4.28
2023-05-03T03:43:39.167Z,4.50
2023-05-03T03:46:12.835Z,4.18
2023-05-03T03:48:43.741Z,4.18
2023-05-03T03:51:13.035Z,4.55
2023-05-03T03:53:49.060Z,3.60
2023-05-03T03:56:18.190Z,3.67
2023-05-03T03:58:49.023Z,3.97
2023-05-03T04:01:18.264Z,3.60
2023-05-03T04:03:47.907Z,3.65
2023-05-03T04:06:17.277Z,3.78
2023-05-03T04:08:46.285Z,3.95
2023-05-03T04:11:17.830Z,3.42
2023-05-03T04:13:51.947Z,3.47
2023-05-03T04:16:20.921Z,3.30
2023-05-03T04:18:49.990Z,3.72
2023-05-03T04:21:19.970Z,3.35
2023-05-03T04:23:49.613Z,3.63
2023-05-03T04:26:31.385Z,3.42
2023-05-03T04:29:08.302Z,3.67
2023-05-03T04:31:39.531Z,2.88
2023-05-03T04:34:10.791Z,3.45
2023-05-03T04:36:40.254Z,3.85
2023-05-03T04:39:11.831Z,3.72
2023-05-03T04:41:42.991Z,3.13
2023-05-03T04:44:11.929Z,3.53
2023-05-03T04:46:40.541Z,3.35
2023-05-03T04:49:10.226Z,3.72
2023-05-03T04:51:39.402Z,2.75
2023-05-03T04:54:08.562Z,3.35
2023-05-03T04:56:37.664Z,3.08
2023-05-03T04:59:19.080Z,3.28
2023-05-03T05:01:48.682Z,3.10
2023-05-03T05:04:17.740Z,3.15
2023-05-03T05:06:53.140Z,2.88
2023-05-03T05:09:27.102Z,2.92
2023-05-03T05:11:58.545Z,3.35
2023-05-03T05:14:34.486Z,3.00
2023-05-03T05:17:04.285Z,3.60
2023-05-03T05:19:32.892Z,2.90
2023-05-03T05:22:01.826Z,3.20
2023-05-03T05:24:40.928Z,3.00
2023-05-03T05:27:10.814Z,2.87
2023-05-03T05:29:41.407Z,3.20
2023-05-03T05:32:10.471Z,3.20
2023-05-03T05:34:45.455Z,2.78
2023-05-03T05:37:18.503Z,2.85
2023-05-03T05:39:48.970Z,3.03
2023-05-03T05:42:19.149Z,2.55
2023-05-03T05:44:49.540Z,2.83
2023-05-03T05:47:18.830Z,2.80
2023-05-03T05:49:48.878Z,3.30
2023-05-03T05:52:19.112Z,3.00
2023-05-03T05:54:48.138Z,2.40
2023-05-03T05:57:17.603Z,2.83
2023-05-03T05:59:46.629Z,2.30
2023-05-03T06:02:18.119Z,2.53
2023-05-03T06:04:48.675Z,2.33
2023-05-03T06:07:18.514Z,2.30
2023-05-03T06:09:47.701Z,2.00
2023-05-03T06:12:16.885Z,1.80
2023-05-03T06:14:59.064Z,2.67
2023-05-03T06:17:33.756Z,1.83
2023-05-03T06:22:31.440Z,1.73
2023-05-03T06:25:00.967Z,2.08
2023-05-03T06:27:29.938Z,1.67
2023-05-03T06:29:59.513Z,1.50
2023-05-03T06:32:28.418Z,1.60
2023-05-03T06:34:59.713Z,1.58
2023-05-03T06:37:28.724Z,1.50
2023-05-03T06:39:57.644Z,1.73
2023-05-03T06:42:27.096Z,1.63
2023-05-03T06:45:08.894Z,1.90
2023-05-03T06:47:40.421Z,1.70
2023-05-03T06:50:12.001Z,1.75
2023-05-03T06:52:40.647Z,2.30
2023-05-03T06:55:10.553Z,1.80
2023-05-03T06:57:40.419Z,1.88
2023-05-03T07:00:11.450Z,1.65
2023-05-03T07:02:40.442Z,1.80
2023-05-03T07:05:11.535Z,2.22
2023-05-03T07:07:40.079Z,1.70
2023-05-03T07:10:09.502Z,1.75
2023-05-03T07:12:38.478Z,1.73
2023-05-03T07:15:08.344Z,2.17
2023-05-03T07:17:38.025Z,2.25
2023-05-03T07:20:11.875Z,2.20
2023-05-03T07:22:42.709Z,1.92
2023-05-03T07:25:14.831Z,1.80
2023-05-03T07:27:44.476Z,1.90
2023-05-03T07:30:14.564Z,2.10
2023-05-03T07:32:43.877Z,2.22
2023-05-03T07:35:13.232Z,1.95
2023-05-03T07:37:43.519Z,2.28
2023-05-03T07:40:13.464Z,2.13
2023-05-03T07:42:42.593Z,2.42
2023-05-03T07:45:12.401Z,2.40
2023-05-03T07:47:41.774Z,2.05
2023-05-03T07:50:11.285Z,2.47
2023-05-03T07:52:40.336Z,2.70
2023-05-03T07:55:11.398Z,2.50
2023-05-03T07:57:40.401Z,2.42
2023-05-03T08:00:12.519Z,2.30
2023-05-03T08:02:41.710Z,2.47
2023-05-03T08:05:14.748Z,2.33
2023-05-03T08:07:44.635Z,2.50
2023-05-03T08:10:15.974Z,2.53
2023-05-03T08:12:45.941Z,2.13
2023-05-03T08:15:15.369Z,2.20
2023-05-03T08:17:46.061Z,3.03
2023-05-03T08:20:16.980Z,2.38
2023-05-03T08:22:46.831Z,2.80
2023-05-03T08:25:19.028Z,2.17
2023-05-03T08:27:48.330Z,2.15
2023-05-03T08:30:17.848Z,2.58
2023-05-03T08:32:47.269Z,2.10
2023-05-03T08:35:16.692Z,2.25
2023-05-03T08:37:45.487Z,2.20
2023-05-03T08:40:17.928Z,2.40
2023-05-03T08:42:47.846Z,2.42
2023-05-03T08:45:18.085Z,2.15
2023-05-03T08:50:17.292Z,2.20
2023-05-03T08:55:17.096Z,2.65
2023-05-03T08:57:46.172Z,2.83
2023-05-03T09:00:16.042Z,2.00
2023-05-03T09:02:45.262Z,2.42
2023-05-03T09:05:35.439Z,2.70
2023-05-03T09:08:05.572Z,2.45
2023-05-03T09:10:38.952Z,2.50
2023-05-03T09:13:08.157Z,2.90
2023-05-03T09:15:37.500Z,3.80
2023-05-03T09:18:11.096Z,2.70
2023-05-03T09:20:41.958Z,2.20
2023-05-03T09:23:11.709Z,2.20
2023-05-03T09:25:46.189Z,2.00
2023-05-03T09:28:15.666Z,2.17
2023-05-03T09:30:44.812Z,1.95
2023-05-03T09:33:19.309Z,1.92
2023-05-03T09:35:58.003Z,1.60
2023-05-03T09:38:31.001Z,1.50
2023-05-03T09:41:01.594Z,1.60
2023-05-03T09:43:30.750Z,1.55
2023-05-03T09:46:10.136Z,1.15
2023-05-03T09:48:39.554Z,1.70
2023-05-03T09:51:09.069Z,1.70
2023-05-03T09:53:39.392Z,1.48
2023-05-03T09:56:12.667Z,1.40
2023-05-03T09:58:41.734Z,1.98
2023-05-03T10:01:11.008Z,1.80
2023-05-03T10:03:44.104Z,1.00
2023-05-03T10:06:25.809Z,1.90
2023-05-03T10:08:56.168Z,1.50
2023-05-03T10:11:28.437Z,1.65
2023-05-03T10:13:57.403Z,1.98
2023-05-03T10:16:31.193Z,1.60
2023-05-03T10:19:13.609Z,1.92
2023-05-03T10:21:56.384Z,1.60
2023-05-03T10:24:25.466Z,1.60
2023-05-03T10:26:57.531Z,1.93
2023-05-03T10:29:49.327Z,1.67
2023-05-03T10:32:34.246Z,1.88
2023-05-03T10:35:06.000Z,1.63
2023-05-03T10:37:36.300Z,1.58
2023-05-03T10:42:41.117Z,1.70
2023-05-03T10:45:12.725Z,1.83
2023-05-03T10:47:41.737Z,1.38
2023-05-03T10:50:28.521Z,1.57
2023-05-03T10:52:57.172Z,1.70
2023-05-03T10:55:26.894Z,2.30
2023-05-03T10:57:58.713Z,2.00
2023-05-03T11:00:34.580Z,1.63
2023-05-03T11:03:14.891Z,1.40
2023-05-03T11:08:14.256Z,1.80
2023-05-03T11:10:43.116Z,2.10
2023-05-03T11:13:13.753Z,2.03
2023-05-03T11:15:43.023Z,1.58
2023-05-03T11:18:12.718Z,1.90
2023-05-03T11:20:41.840Z,1.73
2023-05-03T11:23:10.999Z,1.45
2023-05-03T11:25:39.622Z,1.42
2023-05-03T11:28:08.473Z,1.88
2023-05-03T11:30:39.011Z,1.48
2023-05-03T11:33:08.865Z,1.35
2023-05-03T11:35:37.854Z,1.40
2023-05-03T11:38:07.232Z,1.50
2023-05-03T11:40:39.359Z,1.20
2023-05-03T11:43:08.516Z,1.25
2023-05-03T11:45:43.043Z,1.80
2023-05-03T11:48:13.661Z,1.30
2023-05-03T11:50:53.534Z,1.98
2023-05-03T11:53:23.386Z,2.10
2023-05-03T11:55:53.378Z,1.85
2023-05-03T11:58:24.984Z,1.67
2023-05-03T12:00:56.422Z,1.45
2023-05-03T12:03:31.183Z,1.65
2023-05-03T12:06:02.611Z,1.67
2023-05-03T12:08:36.714Z,1.65
2023-05-03T12:11:09.941Z,1.30
2023-05-03T12:13:40.493Z,1.20
2023-05-03T12:16:14.776Z,2.13
2023-05-03T12:18:50.279Z,1.38
2023-05-03T12:23:55.928Z,1.50
2023-05-03T12:26:26.669Z,1.30
2023-05-03T12:28:56.652Z,1.30
2023-05-03T12:31:29.050Z,1.50
2023-05-03T12:36:31.873Z,1.65
2023-05-03T12:39:02.158Z,1.33
2023-05-03T12:44:03.666Z,1.63
2023-05-03T12:46:35.160Z,1.88
2023-05-03T12:49:07.590Z,1.77
2023-05-03T12:51:42.019Z,2.25
2023-05-03T12:54:11.795Z,1.50
2023-05-03T12:56:41.683Z,1.60
2023-05-03T13:04:45.385Z,1.50
2023-05-03T13:07:12.627Z,1.70
2023-05-03T13:12:33.532Z,1.83
2023-05-03T13:15:04.053Z,1.88
2023-05-03T13:17:35.039Z,1.45
2023-05-03T13:20:08.261Z,2.00
2023-05-03T13:22:36.985Z,1.60
2023-05-03T13:25:07.256Z,1.83
2023-05-03T13:27:36.244Z,1.63
2023-05-03T13:30:06.304Z,1.70
2023-05-03T13:32:36.881Z,1.80
2023-05-03T13:35:07.166Z,1.52
2023-05-03T13:37:36.562Z,1.50
2023-05-03T13:40:07.052Z,1.42
2023-05-03T13:42:36.555Z,1.83
2023-05-03T13:45:06.142Z,1.55
2023-05-03T13:50:25.704Z,1.50
2023-05-03T13:52:55.607Z,1.58
2023-05-03T13:55:26.420Z,1.55
2023-05-03T13:57:55.381Z,1.85
2023-05-03T14:00:24.458Z,1.80
2023-05-03T14:02:55.763Z,1.38
2023-05-03T14:05:24.702Z,1.30
2023-05-03T14:07:53.480Z,1.55
2023-05-03T14:10:22.851Z,1.63
2023-05-03T14:12:53.161Z,2.08
2023-05-03T14:15:22.344Z,1.45
2023-05-03T14:17:51.427Z,1.87
2023-05-03T14:20:22.311Z,1.70
2023-05-03T14:22:51.451Z,2.25
2023-05-03T14:25:20.682Z,1.38
2023-05-03T14:27:49.665Z,1.35
2023-05-03T14:30:18.654Z,1.47
2023-05-03T14:32:47.873Z,1.30
2023-05-03T14:35:18.514Z,1.38
2023-05-03T14:37:48.765Z,1.77
2023-05-03T14:40:18.503Z,1.40
2023-05-03T14:45:16.120Z,1.50
2023-05-03T14:47:46.096Z,1.83
2023-05-03T14:50:15.374Z,1.40
2023-05-03T14:52:44.001Z,1.50
2023-05-03T14:55:14.421Z,1.43
2023-05-03T14:57:43.565Z,1.55
2023-05-03T15:00:15.241Z,1.70
2023-05-03T15:02:46.874Z,1.63
2023-05-03T15:05:16.111Z,1.75
2023-05-03T15:07:44.608Z,1.50
2023-05-03T15:10:15.124Z,1.58
2023-05-03T15:12:44.136Z,1.80
2023-05-03T15:15:13.160Z,1.55
2023-05-03T15:17:42.170Z,1.52
2023-05-03T15:20:14.016Z,1.75
2023-05-03T15:22:42.647Z,1.40
2023-05-03T15:25:11.851Z,1.42
2023-05-03T15:27:42.240Z,1.65
2023-05-03T15:30:14.896Z,1.67
2023-05-03T15:32:44.016Z,1.77
2023-05-03T15:35:13.241Z,1.25
2023-05-03T15:37:42.060Z,1.73
2023-05-03T15:40:13.753Z,1.20
2023-05-03T15:42:44.163Z,1.67
2023-05-03T15:45:14.076Z,1.38
2023-05-03T15:47:43.298Z,1.63
2023-05-03T15:50:12.949Z,1.40
2023-05-03T15:52:42.341Z,1.73
2023-05-03T15:55:12.018Z,1.95
2023-05-03T16:00:15.205Z,1.47
2023-05-03T16:02:44.594Z,1.20
2023-05-03T16:05:13.650Z,2.05
2023-05-03T16:07:42.419Z,1.50
2023-05-03T16:10:11.933Z,1.75
2023-05-03T16:12:40.972Z,1.20
2023-05-03T16:15:13.746Z,1.40
2023-05-03T16:17:42.981Z,1.30
2023-05-03T16:20:12.522Z,1.80
2023-05-03T16:22:41.315Z,1.40
2023-05-03T16:25:11.383Z,1.50
2023-05-03T16:27:41.052Z,1.70
2023-05-03T16:30:11.171Z,1.13
2023-05-03T16:32:44.058Z,1.50
2023-05-03T16:35:13.790Z,1.50
2023-05-03T16:37:42.365Z,1.67
2023-05-03T16:40:11.732Z,1.57
2023-05-03T16:42:41.038Z,1.35
2023-05-03T16:45:11.047Z,1.27
2023-05-03T16:50:11.162Z,1.52
2023-05-03T16:52:41.413Z,2.72
2023-05-03T16:55:11.478Z,1.30
2023-05-03T17:00:11.333Z,1.77
2023-05-03T17:02:41.332Z,1.60
2023-05-03T17:05:13.715Z,1.75
2023-05-03T17:07:42.529Z,1.60
2023-05-03T17:10:12.980Z,2.15
2023-05-03T17:12:42.007Z,1.92
2023-05-03T17:15:11.953Z,1.67
2023-05-03T17:20:13.010Z,1.33
2023-05-03T17:22:41.693Z,1.90
2023-05-03T17:25:28.353Z,3.15
2023-05-03T17:28:19.820Z,2.38
2023-05-03T17:31:19.368Z,1.58
2023-05-03T17:34:17.847Z,1.80
2023-05-03T17:36:49.348Z,2.10
2023-05-03T17:39:19.782Z,1.70
2023-05-03T17:41:56.028Z,1.60
2023-05-03T17:44:28.025Z,1.80
2023-05-03T17:46:56.906Z,1.45
2023-05-03T17:49:26.258Z,2.33
2023-05-03T17:51:56.830Z,1.87
2023-05-03T17:56:54.877Z,1.92
2023-05-03T17:59:24.113Z,2.40
2023-05-03T18:01:53.291Z,1.92
2023-05-03T18:04:22.819Z,2.00
2023-05-03T18:06:52.116Z,2.30
2023-05-03T18:09:23.986Z,2.53
2023-05-03T18:11:56.504Z,2.30
2023-05-03T18:14:25.746Z,2.95
2023-05-03T18:16:55.301Z,2.47
2023-05-03T18:19:25.219Z,2.63
2023-05-03T18:21:54.211Z,2.25
2023-05-03T18:24:24.864Z,2.83
2023-05-03T18:26:53.818Z,2.97
2023-05-03T18:29:22.725Z,2.90
2023-05-03T18:31:54.893Z,3.15
2023-05-03T18:34:26.768Z,3.08
2023-05-03T18:36:55.945Z,2.55
2023-05-03T18:39:26.765Z,3.03
2023-05-03T18:41:56.051Z,3.38
2023-05-03T18:44:25.884Z,3.40
2023-05-03T18:46:54.472Z,3.47
2023-05-03T18:49:23.635Z,3.60
2023-05-03T18:51:52.549Z,4.40
2023-05-03T18:54:21.566Z,3.53
2023-05-03T18:56:51.942Z,4.13
2023-05-03T19:01:49.685Z,3.40
2023-05-03T19:04:18.864Z,3.88
2023-05-03T19:06:47.789Z,4.05
2023-05-03T19:09:17.049Z,3.95
2023-05-03T19:11:45.997Z,2.97
2023-05-03T19:14:16.361Z,3.70
2023-05-03T19:16:45.108Z,3.97
2023-05-03T19:19:14.003Z,4.60
2023-05-03T19:21:43.901Z,5.93
2023-05-03T19:24:14.971Z,6.05
2023-05-03T19:26:44.054Z,5.80
2023-05-03T19:29:12.943Z,4.90
2023-05-03T19:31:42.966Z,5.22
2023-05-03T19:36:40.735Z,5.82
2023-05-03T19:39:11.434Z,5.43
2023-05-03T19:41:40.738Z,6.28
2023-05-03T19:44:09.725Z,5.55
2023-05-03T19:46:38.466Z,5.35
2023-05-03T19:49:08.923Z,5.18
2023-05-03T19:54:07.731Z,4.63
2023-05-03T19:56:36.583Z,5.28
2023-05-03T19:59:05.439Z,4.97
2023-05-03T20:01:33.978Z,4.93
2023-05-03T20:04:06.535Z,4.88
2023-05-03T20:06:37.162Z,5.57
2023-05-03T20:11:34.768Z,4.72
2023-05-03T20:14:03.764Z,5.32
2023-05-03T20:16:37.569Z,5.28
2023-05-03T20:19:06.928Z,5.43
2023-05-03T20:21:37.526Z,5.32
2023-05-03T20:26:40.272Z,6.30
2023-05-03T20:29:09.257Z,6.32
2023-05-03T20:31:38.248Z,4.97
2023-05-03T20:34:07.230Z,4.95
2023-05-03T20:36:38.456Z,5.65
2023-05-03T20:39:09.049Z,5.30
2023-05-03T20:41:38.308Z,5.20
2023-05-03T20:44:07.191Z,4.95
2023-05-03T20:46:38.161Z,5.47
2023-05-03T20:49:09.574Z,5.95
2023-05-03T20:51:40.600Z,5.53
2023-05-03T20:54:09.733Z,5.47
2023-05-03T20:56:38.672Z,5.63
2023-05-03T20:59:07.649Z,5.88
2023-05-03T21:01:40.585Z,6.13
2023-05-03T21:04:09.758Z,6.10
2023-05-03T21:06:39.980Z,6.78
2023-05-03T21:09:08.915Z,8.75
2023-05-03T21:11:37.899Z,8.82
2023-05-03T21:14:06.795Z,9.45
2023-05-03T21:16:35.472Z,9.27
2023-05-03T21:19:04.610Z,8.80
2023-05-03T21:21:33.585Z,9.30
2023-05-03T21:24:04.164Z,9.52
2023-05-03T21:26:33.262Z,9.20
2023-05-03T21:29:02.176Z,9.43
2023-05-03T21:31:31.089Z,10.23
2023-05-03T21:33:59.962Z,11.02
2023-05-03T21:36:28.984Z,10.07
2023-05-03T21:38:58.018Z,10.88
2023-05-03T21:41:28.681Z,9.98
2023-05-03T21:43:57.349Z,11.15
2023-05-03T21:46:26.424Z,10.30
2023-05-03T21:48:55.794Z,10.10
2023-05-03T21:51:25.109Z,10.10
2023-05-03T21:53:54.124Z,9.93
2023-05-03T21:56:23.194Z,10.10
2023-05-03T21:58:53.124Z,12.05
2023-05-03T22:01:22.186Z,10.57
2023-05-03T22:03:51.446Z,11.07
2023-05-03T22:06:20.482Z,10.43
2023-05-03T22:08:49.434Z,10.40
2023-05-03T22:11:18.312Z,10.95
2023-05-03T22:13:59.183Z,10.65
2023-05-03T22:16:37.710Z,10.48
2023-05-03T22:19:06.708Z,10.48
2023-05-03T22:21:35.856Z,10.65
2023-05-03T22:24:04.942Z,9.82
2023-05-03T22:26:33.887Z,10.38
2023-05-03T22:29:02.951Z,9.88
2023-05-03T22:31:31.700Z,8.70
2023-05-03T22:34:03.278Z,8.93
2023-05-03T22:36:32.195Z,8.50
2023-05-03T22:39:05.428Z,8.60
2023-05-03T22:41:34.831Z,8.20
2023-05-03T22:44:03.722Z,9.32
2023-05-03T22:46:32.221Z,9.75
2023-05-03T22:49:02.547Z,9.93
2023-05-03T22:51:31.919Z,9.32
2023-05-03T22:54:01.102Z,10.07
2023-05-03T22:56:30.092Z,15.63
2023-05-03T22:58:58.967Z,14.57
2023-05-03T23:01:27.645Z,15.95
2023-05-03T23:03:56.848Z,16.95
2023-05-03T23:06:27.254Z,16.50
2023-05-03T23:08:56.169Z,18.27
2023-05-03T23:11:25.119Z,17.10
2023-05-03T23:13:53.609Z,16.52
2023-05-03T23:16:22.691Z,17.27
2023-05-03T23:18:53.521Z,17.13
2023-05-03T23:21:23.847Z,16.58
2023-05-03T23:23:54.170Z,15.27
2023-05-03T23:26:23.074Z,14.95
2023-05-03T23:28:52.206Z,15.73
2023-05-03T23:31:21.617Z,17.37
2023-05-03T23:33:50.843Z,15.43
2023-05-03T23:36:19.659Z,14.65
2023-05-03T23:38:48.643Z,14.30
2023-05-03T23:41:18.965Z,14.55
2023-05-03T23:43:47.682Z,16.73
2023-05-03T23:46:16.482Z,15.35
2023-05-03T23:48:45.510Z,15.05
2023-05-03T23:51:14.396Z,16.33
2023-05-03T23:53:43.438Z,15.52
2023-05-03T23:56:12.507Z,15.55
2023-05-03T23:58:42.554Z,15.32
